• Join FlightAware (Why Join?)
  • Login
  • US Flag 
06:25PM EST


 

Airport Tracker/Info


-or-


 

Live Flight TrackerFlight Track Log ✈ SWA414 ✈ 09-Jan-2014 ✈ KOAK - KLAS

Flight Track Log - Related Links

Times and Time Zones

All times are in EST time to prevent confusion due to time zone crossing. See the SWA414 flight status page for this flight to view local times or setup timezone preferences in your user account.

Time Position Orientation Groundspeed Altitude Reporting Facility
EST Latitude Longitude Course Direction KTS MPH feet Rate Location/Type
08:14PM 37.7167 -122.2500 90° East 153 176 1,600  Level Northern Cal TRACON
08:15PM 37.7500 -122.3000 310° West 197 227 4,100 2,880 Climbing Northern Cal TRACON
08:16PM 37.7000 -122.3500 218° Southwest 290 334 7,100 3,360 Climbing Northern Cal TRACON
08:17PM 37.6000 -122.3833 195° South 343 395 11,200 3,300 Climbing Northern Cal TRACON
08:18PM 37.5006 -122.3531 166° South 365 420 14,700 3,180 Climbing Oakland Center
08:19PM 37.4653 -122.2322 110° East 366 421 18,300 3,240 Climbing Oakland Center
08:20PM 37.5617 -121.4297 90° East  Level Estimated
08:20PM 37.4344 -122.1014 106° East 382 440 21,400  Level Oakland Center
08:21PM 37.3944 -121.9339 107° East 410 472 24,800 2,820 Climbing Oakland Center
08:22PM 37.3603 -121.7856 106° East 431 496 27,300 2,640 Climbing Oakland Center
08:23PM 37.3261 -121.6294 105° East 452 520 30,200 2,460 Climbing Oakland Center
08:24PM 37.2908 -121.4797 106° East 454 522 32,400 1,320 Climbing Oakland Center
08:25PM 37.2544 -121.3272 107° East 454 522 33,000 240 Climbing Oakland Center
08:27PM 37.2164 -121.1733 107° East 459 528 33,000  Level Oakland Center
08:28PM 37.1808 -121.0219 106° East 457 526 33,000  Level Oakland Center
08:29PM 37.1447 -120.8706 107° East 456 525 33,000  Level Oakland Center
08:30PM 37.1378 -120.7197 93° East 442 509 33,000  Level Oakland Center
08:31PM 37.1569 -120.5436 82° East 428 493 33,000  Level Oakland Center
08:32PM 37.1717 -120.3950 83° East 429 494 33,000  Level Oakland Center
08:33PM 37.1850 -120.2458 84° East 429 494 33,000  Level Oakland Center
08:34PM 37.1994 -120.0992 83° East 429 494 33,000  Level Oakland Center
08:35PM 37.2136 -119.9500 83° East 429 494 33,000  Level Oakland Center
08:36PM 37.2292 -119.7889 83° East 431 496 33,000  Level Oakland Center
08:37PM 37.2417 -119.6414 84° East 427 491 33,000  Level Oakland Center
08:38PM 37.2553 -119.4925 83° East 428 493 33,000  Level Oakland Center
08:39PM 37.2689 -119.3436 83° East 428 493 33,000  Level Oakland Center
08:40PM 37.2800 -119.1956 85° East 427 491 33,000  Level Oakland Center
08:41PM 37.2931 -119.0481 84° East 427 491 33,000  Level Oakland Center
08:42PM 37.3067 -118.8992 83° East 429 494 33,000  Level Oakland Center
08:43PM 37.3189 -118.7483 84° East 435 501 33,000  Level Oakland Center
08:44PM 37.3331 -118.5914 83° East 429 494 33,000  Level Oakland Center
08:45PM 37.3436 -118.4431 85° East 426 490 33,000  Level Oakland Center
08:46PM 37.3564 -118.2958 84° East 426 490 33,000  Level Oakland Center
08:47PM 37.3219 -118.1139 103° East 458 527 33,000  Level Oakland Center
08:48PM 37.2661 -117.9697 116° Southeast 462 532 33,000  Level Oakland Center
08:49PM 37.2125 -117.8256 115° Southeast 458 527 33,000  Level Oakland Center
08:50PM 37.1578 -117.6808 115° Southeast 461 531 33,000  Level Oakland Center
08:51PM 37.1033 -117.5361 115° Southeast 461 531 33,000  Level Oakland Center
08:52PM 37.0478 -117.3911 116° Southeast 462 532 33,000  Level Oakland Center
08:53PM 36.9922 -117.2467 116° Southeast 463 533 33,000 -120 Level Oakland Center
08:54PM 36.9150 -117.1144 126° Southeast 472 543 32,800 -600 Descending Oakland Center
08:55PM 36.8392 -116.9839 126° Southeast 469 540 31,800 -900 Descending Oakland Center
08:56PM 36.7656 -116.8556 126° Southeast 460 529 31,000 -420 Descending Oakland Center
08:57PM 36.6717 -116.6969 126° Southeast 470 541 31,000 -1,080 Level Oakland Center
08:58PM 36.5936 -116.5647 126° Southeast 473 544 28,900 -2,760 Descending Oakland Center
09:00PM 36.4822 -116.3719 126° Southeast 473 544 24,300 -2,940 Descending Los Angeles Center
09:01PM 36.4075 -116.2431 126° Southeast 462 532 21,600 -2,700 Descending Los Angeles Center
09:02PM 36.3317 -116.1158 126° Southeast 450 518 18,800 -2,460 Descending Los Angeles Center
09:03PM 36.2544 -115.9914 128° Southeast 428 493 16,600 -1,800 Descending Los Angeles Center
09:03PM 36.2297 -115.9483 125° Southeast 411 473 16,300 -720 Descending Los Angeles Center
09:04PM 36.1889 -115.8869 129° Southeast 385 443 15,900 -1,020 Descending Los Angeles Center
09:04PM 36.1614 -115.8692 152° Southeast 359 413 15,400 -1,800 Descending Los Angeles Center
09:05PM 36.1006 -115.8156 145° Southeast 356 410 14,100 -1,800 Descending Los Angeles Center
09:05PM 36.0767 -115.7953 146° Southeast 356 410 13,600 -1,680 Descending Los Angeles Center
09:06PM 36.0189 -115.7458 145° Southeast 357 411 12,400 -1,500 Descending Los Angeles Center
09:06PM 35.9958 -115.7283 148° Southeast 353 406 12,100 -1,380 Descending Los Angeles Center
09:07PM 35.9350 -115.6761 145° Southeast 343 395 11,000 -1,020 Descending Los Angeles Center
09:07PM 35.9117 -115.6575 147° Southeast 333 383 11,000  Level Los Angeles Center
09:08PM 35.8653 -115.6128 142° Southeast 318 366 11,000  Level Los Angeles Center
09:08PM 35.8422 -115.5950 148° Southeast 296 341 11,000 -780 Level Los Angeles Center
09:09PM 35.7950 -115.5525 144° Southeast 291 335 10,200 -1,020 Descending Los Angeles Center
09:09PM 35.7803 -115.5381 141° Southeast 293 337 10,000 -1,020 Descending Los Angeles Center
09:10PM 35.7600 -115.4753 112° Southeast 268 308 9,200 -1,020 Descending Los Angeles Center
09:10PM 35.7639 -115.4614 71° East 251 289 9,100 -1,200 Descending Los Angeles Center
09:11PM 35.7922 -115.3833 66° East 241 277 7,800 -1,140 Descending Los Angeles Center
09:12PM 35.8319 -115.3344 45° Northeast 238 274 7,000 -900 Descending Los Angeles Center
09:12PM 35.8417 -115.3222 46° Northeast 231 266 6,800 -1,140 Descending Los Angeles Center
09:13PM 35.8861 -115.2783 39° Northeast 225 259 5,700 -960 Descending Los Angeles Center
09:14PM 35.9375 -115.2489 25° Northeast 223 257 5,100 -540 Descending Los Angeles Center
09:14PM 35.9500 -115.2442 17° North 212 244 5,100 -960 Level Los Angeles Center
09:15PM 35.9958 -115.2158 27° Northeast 183 211 4,000 -960 Descending Los Angeles Center
09:16PM 36.0344 -115.1953 23° Northeast 146 168 3,200 -840 Descending Los Angeles Center
09:17PM 36.0642 -115.1756 28° Northeast 138 159 2,500 -900 Descending Los Angeles Center
09:17PM 36.0667 -115.1739 28° Northeast 135 155 2,400 -3,000 Descending Los Angeles Center
09:19PM 36.0801 -115.1523 95° East  Level Estimated
09:26PM 36.0801 -115.1523 270° West  Level Estimated